Time;durP1;ratioP1;P1;durP2;ratioP2;P2;SDS_P1;SDS_P2;PMS_P1;PMS_P2;Temp;Humidity;BMP_temperature;BMP_pressure;BME280_temperature;BME280_humidity;BME280_pressure;Samples;Min_cycle;Max_cycle;Signal;HPM_P1;HPM_P2
2023/01/07 00:01:02;;;;;;;10.15;9.10;;;;;;;9.18;100.00;101479.06;5028565;28;20021;-64
2023/01/07 00:03:28;;;;;;;9.13;8.23;;;;;;;9.17;100.00;101476.41;5028202;28;20390;-65
2023/01/07 00:06:05;;;;;;;11.75;7.97;;;;;;;9.16;100.00;101477.22;5028184;28;20034;-64
2023/01/07 00:08:33;;;;;;;9.18;8.13;;;;;;;9.17;100.00;101476.41;5028619;28;20358;-64
2023/01/07 00:11:03;;;;;;;11.00;8.00;;;;;;;9.15;100.00;101472.88;5028108;28;20021;-64
2023/01/07 00:13:28;;;;;;;10.20;8.65;;;;;;;9.11;100.00;101469.25;5027844;28;20025;-65
2023/01/07 00:15:58;;;;;;;10.27;8.50;;;;;;;9.15;100.00;101467.69;5028551;28;20027;-64
2023/01/07 00:18:24;;;;;;;8.98;7.88;;;;;;;9.10;100.00;101460.59;5028160;28;20025;-65
2023/01/07 00:20:49;;;;;;;9.15;8.25;;;;;;;9.08;100.00;101467.41;5027899;28;20029;-64
2023/01/07 00:23:14;;;;;;;8.05;7.25;;;;;;;9.09;100.00;101461.41;5028000;28;20059;-64
2023/01/07 00:25:40;;;;;;;8.95;8.13;;;;;;;9.10;100.00;101462.31;5027044;28;20406;-64
2023/01/07 00:28:05;;;;;;;14.20;7.93;;;;;;;9.05;100.00;101462.06;5027760;28;20033;-64
2023/01/07 00:30:30;;;;;;;7.90;7.20;;;;;;;9.05;100.00;101467.25;5027915;28;20029;-64
2023/01/07 00:33:04;;;;;;;9.68;8.45;;;;;;;9.02;100.00;101464.53;5027979;28;20132;-64
2023/01/07 00:35:31;;;;;;;8.43;7.60;;;;;;;9.03;100.00;101461.09;5027962;28;20028;-64
2023/01/07 00:37:57;;;;;;;9.55;8.40;;;;;;;8.98;100.00;101454.84;5027366;28;20021;-64
2023/01/07 00:40:22;;;;;;;10.52;8.55;;;;;;;8.97;100.00;101445.31;5027985;28;20059;-64
2023/01/07 00:42:54;;;;;;;11.23;7.95;;;;;;;8.95;100.00;101450.41;5027619;28;20029;-64
2023/01/07 00:45:23;;;;;;;;;;;;;;;8.93;100.00;101445.97;5028382;28;20480;-64
2023/01/07 00:47:52;;;;;;;8.43;6.75;;;;;;;8.86;100.00;101455.13;5026972;28;20317;-64
2023/01/07 00:50:21;;;;;;;8.57;7.03;;;;;;;8.80;100.00;101447.97;5027240;28;20028;-65
2023/01/07 00:52:46;;;;;;;8.10;7.40;;;;;;;8.82;100.00;101443.75;5027328;28;20057;-64
2023/01/07 00:55:13;;;;;;;10.77;7.55;;;;;;;8.80;100.00;101440.22;5027770;28;20013;-64
2023/01/07 00:57:40;;;;;;;9.40;8.18;;;;;;;8.82;100.00;101433.41;5027894;28;20036;-64
2023/01/07 01:00:06;;;;;;;8.10;7.07;;;;;;;8.81;100.00;101439.41;5027400;28;20036;-65
2023/01/07 01:02:31;;;;;;;8.43;7.63;;;;;;;8.84;100.00;101425.72;5027262;28;20751;-64
2023/01/07 01:04:56;;;;;;;7.95;7.20;;;;;;;8.82;100.00;101428.25;5027362;28;20033;-64
2023/01/07 01:07:22;;;;;;;8.75;7.10;;;;;;;8.85;100.00;101436.16;5027606;28;20443;-65
2023/01/07 01:09:47;;;;;;;7.82;7.13;;;;;;;8.83;100.00;101416.22;5027158;28;20029;-64
2023/01/07 01:12:12;;;;;;;8.40;6.55;;;;;;;8.84;100.00;101416.28;5027359;28;20052;-64
2023/01/07 01:14:37;;;;;;;7.25;6.25;;;;;;;8.84;100.00;101405.06;5027376;28;20025;-65
2023/01/07 01:17:03;;;;;;;9.00;7.18;;;;;;;8.83;100.00;101399.00;5027503;28;20497;-64
2023/01/07 01:19:28;;;;;;;7.95;7.15;;;;;;;8.87;100.00;101406.09;5027153;28;20063;-64
2023/01/07 01:21:53;;;;;;;9.02;6.75;;;;;;;8.85;100.00;101404.25;5027330;28;20100;-64
2023/01/07 01:24:19;;;;;;;6.97;6.40;;;;;;;8.86;100.00;101400.84;5027039;28;20032;-64
2023/01/07 01:26:45;;;;;;;8.73;6.78;;;;;;;8.83;100.00;101392.97;5027111;28;20029;-65
2023/01/07 01:29:10;;;;;;;9.15;7.25;;;;;;;8.82;100.00;101394.66;5027338;28;20411;-64
2023/01/07 01:31:35;;;;;;;9.60;7.63;;;;;;;8.81;100.00;101392.00;5027135;28;20355;-64
2023/01/07 01:34:01;;;;;;;7.15;6.45;;;;;;;8.86;100.00;101394.00;5027089;28;20024;-64
2023/01/07 01:36:26;;;;;;;8.02;6.22;;;;;;;8.83;100.00;101398.13;5027090;28;20548;-64
2023/01/07 01:38:51;;;;;;;6.38;5.78;;;;;;;8.83;100.00;101391.25;5027193;28;20021;-65
2023/01/07 01:41:17;;;;;;;9.98;6.93;;;;;;;8.83;100.00;101393.81;5027822;28;20104;-65
2023/01/07 01:43:43;;;;;;;7.50;6.68;;;;;;;8.80;100.00;101396.28;5031739;28;20025;-65
2023/01/07 01:46:19;;;;;;;7.47;6.75;;;;;;;8.77;100.00;101389.28;5031088;28;20022;-65
2023/01/07 01:48:55;;;;;;;8.85;6.25;;;;;;;8.79;100.00;101388.44;5031475;28;20574;-65
2023/01/07 01:51:25;;;;;;;7.32;6.40;;;;;;;8.78;100.00;101384.97;5030727;28;20025;-64
2023/01/07 01:53:51;;;;;;;7.30;6.30;;;;;;;8.77;100.00;101391.84;5031018;28;20378;-65
2023/01/07 01:56:20;;;;;;;8.00;6.80;;;;;;;8.77;100.00;101390.97;5031018;28;20032;-65
2023/01/07 01:58:50;;;;;;;8.25;6.95;;;;;;;8.78;100.00;101395.31;5030411;28;20116;-65
2023/01/07 02:01:16;;;;;;;7.82;6.63;;;;;;;8.80;100.00;101387.63;5030296;28;20033;-64
2023/01/07 02:03:42;;;;;;;7.45;6.70;;;;;;;8.79;100.00;101394.50;5030887;28;20096;-64
2023/01/07 02:06:16;;;;;;;8.23;6.45;;;;;;;8.80;100.00;101393.69;5030631;28;20025;-65
2023/01/07 02:08:41;;;;;;;8.27;6.35;;;;;;;8.81;100.00;101392.91;5030428;28;20446;-64
2023/01/07 02:11:26;;;;;;;6.65;6.07;;;;;;;8.79;100.00;101393.63;5030291;28;20025;-64
2023/01/07 02:14:10;;;;;;;5.82;5.32;;;;;;;8.76;100.00;101391.78;5030390;28;20029;-64
2023/01/07 02:17:17;;;;;;;6.78;6.05;;;;;;;8.75;100.00;101398.66;5030428;28;20090;-65
2023/01/07 02:20:04;;;;;;;8.93;6.72;;;;;;;8.77;100.00;101389.28;4981110;28;20052;-65
2023/01/07 02:22:47;;;;;;;6.75;6.03;;;;;;;8.73;100.00;101395.09;5030262;28;20036;-64
2023/01/07 02:25:18;;;;;;;7.35;5.45;;;;;;;8.70;100.00;101384.63;5028752;28;20123;-64
2023/01/07 02:28:24;;;;;;;6.60;6.00;;;;;;;8.72;100.00;101389.84;5030203;28;20061;-65
2023/01/07 02:31:13;;;;;;;7.82;5.35;;;;;;;8.73;100.00;101383.88;5029988;28;20565;-64
2023/01/07 02:33:51;;;;;;;7.47;5.28;;;;;;;8.72;100.00;101379.53;5029807;28;20025;-64
2023/01/07 02:36:34;;;;;;;5.85;5.25;;;;;;;8.73;100.00;101381.28;5030620;28;20421;-64
2023/01/07 02:39:28;;;;;;;6.47;5.05;;;;;;;8.69;100.00;101385.41;5030375;28;20025;-65
2023/01/07 02:42:11;;;;;;;8.18;5.50;;;;;;;8.70;100.00;101381.13;5027132;28;20044;-64
2023/01/07 02:45:03;;;;;;;8.25;5.03;;;;;;;8.69;100.00;101379.38;5029636;28;20476;-64
2023/01/07 02:47:35;;;;;;;7.38;4.90;;;;;;;8.72;100.00;101379.53;4983615;28;20041;-64
2023/01/07 02:50:00;;;;;;;6.30;4.45;;;;;;;8.70;100.00;101375.97;5029981;28;20029;-64
2023/01/07 02:52:30;;;;;;;6.15;5.05;;;;;;;8.69;100.00;101371.63;5029440;28;20072;-64
2023/01/07 02:55:12;;;;;;;9.93;5.18;;;;;;;8.70;100.00;101370.81;5028979;28;20034;-65
2023/01/07 02:57:43;;;;;;;6.13;4.97;;;;;;;8.69;100.00;101369.03;5029773;28;20045;-64
2023/01/07 03:00:33;;;;;;;7.30;4.68;;;;;;;8.77;100.00;101367.69;5029490;28;20485;-65
2023/01/07 03:03:04;;;;;;;8.55;4.82;;;;;;;8.82;100.00;101371.41;5029730;28;20397;-65
2023/01/07 03:05:51;;;;;;;4.63;4.22;;;;;;;8.82;100.00;101361.06;5029436;28;20477;-64
2023/01/07 03:08:47;;;;;;;4.82;4.32;;;;;;;8.86;100.00;101368.16;5029184;28;20106;-64
2023/01/07 03:11:13;;;;;;;5.18;3.85;;;;;;;8.91;100.00;101354.53;5029347;28;20073;-64
2023/01/07 03:14:06;;;;;;;5.72;3.80;;;;;;;8.93;100.00;101355.50;5029653;28;20056;-64
2023/01/07 03:16:36;;;;;;;5.45;4.03;;;;;;;8.96;100.00;101342.75;5029214;28;20041;-65
2023/01/07 03:19:08;;;;;;;8.30;4.72;;;;;;;8.94;100.00;101349.53;5029490;28;20029;-64
2023/01/07 03:21:34;;;;;;;;;;;;;;;8.99;100.00;101342.88;5029903;28;20119;-64
2023/01/07 03:24:00;;;;;;;3.85;3.30;;;;;;;8.98;100.00;101336.81;5029529;28;19917;-64
2023/01/07 03:26:31;;;;;;;3.72;3.30;;;;;;;8.98;100.00;101334.22;5029251;28;20037;-64
2023/01/07 03:28:59;;;;;;;5.22;3.63;;;;;;;8.99;100.00;101332.53;5029038;28;20469;-64
2023/01/07 03:31:26;;;;;;;5.38;3.15;;;;;;;8.99;100.00;101322.19;5029125;28;20129;-65
2023/01/07 03:33:59;;;;;;;4.90;3.67;;;;;;;9.01;100.00;101321.44;5029132;28;20025;-64
2023/01/07 03:36:31;;;;;;;5.60;3.50;;;;;;;8.98;100.00;101321.31;5028950;28;20444;-65
2023/01/07 03:38:58;;;;;;;5.00;3.40;;;;;;;8.98;100.00;101320.41;5029071;28;20087;-64
2023/01/07 03:44:09;;;;;;;3.10;2.80;;;;;;;8.99;100.00;101322.19;4997448;28;20045;-65
2023/01/07 03:46:36;;;;;;;4.55;3.03;;;;;;;8.99;100.00;101319.63;5029161;28;20503;-65
2023/01/07 03:49:01;;;;;;;5.40;3.30;;;;;;;9.00;100.00;101316.19;5029086;28;20033;-64
2023/01/07 03:51:27;;;;;;;5.30;3.40;;;;;;;9.00;100.00;101316.19;5029040;28;20028;-64
2023/01/07 03:53:52;;;;;;;5.90;3.72;;;;;;;9.00;100.00;101306.75;5028780;28;20417;-64
2023/01/07 03:56:17;;;;;;;4.38;3.40;;;;;;;9.05;100.00;101312.13;5028663;28;20017;-65
2023/01/07 03:58:43;;;;;;;6.05;3.40;;;;;;;9.04;100.00;101300.03;5028163;28;20476;-64
2023/01/07 04:01:08;;;;;;;4.45;3.13;;;;;;;9.04;100.00;101300.03;5028649;28;20032;-64
2023/01/07 04:03:33;;;;;;;4.55;2.60;;;;;;;9.09;100.00;101308.88;5028694;28;20036;-65
2023/01/07 04:05:58;;;;;;;5.07;2.88;;;;;;;9.07;100.00;101299.25;5028094;28;20466;-64
2023/01/07 04:08:24;;;;;;;4.70;2.72;;;;;;;9.07;100.00;101300.16;5028545;28;20078;-64
2023/01/07 04:10:49;;;;;;;5.57;2.95;;;;;;;9.09;100.00;101297.63;5027913;28;20026;-64
2023/01/07 04:13:14;;;;;;;3.38;2.35;;;;;;;9.09;100.00;101293.34;5028203;28;20131;-64
2023/01/07 04:15:41;;;;;;;4.43;2.47;;;;;;;9.09;100.00;101285.59;5028250;28;20021;-65
2023/01/07 04:18:07;;;;;;;5.53;2.97;;;;;;;9.09;100.00;101284.72;5028442;28;20563;-64
2023/01/07 04:20:32;;;;;;;5.43;2.88;;;;;;;9.05;100.00;101275.94;5028134;28;20025;-65
2023/01/07 04:22:58;;;;;;;4.55;2.70;;;;;;;9.07;100.00;101279.47;5027535;28;20097;-64
2023/01/07 04:25:23;;;;;;;5.60;2.42;;;;;;;9.08;100.00;101272.63;5027982;28;20091;-64
2023/01/07 04:27:49;;;;;;;4.90;2.53;;;;;;;9.05;100.00;101267.31;5027933;28;20506;-64
2023/01/07 04:30:14;;;;;;;3.88;2.35;;;;;;;9.02;100.00;101270.63;5027919;28;20025;-65
2023/01/07 04:32:39;;;;;;;3.90;2.40;;;;;;;9.05;100.00;101247.50;5028062;28;20026;-64
2023/01/07 04:35:05;;;;;;;3.42;2.33;;;;;;;9.08;100.00;101257.09;5027965;28;20021;-65
2023/01/07 04:37:30;;;;;;;3.63;2.10;;;;;;;9.06;100.00;101257.03;5027351;28;20456;-64
2023/01/07 04:39:55;;;;;;;2.97;1.63;;;;;;;9.04;100.00;101252.59;5026473;28;20113;-65
2023/01/07 04:42:21;;;;;;;2.58;2.22;;;;;;;9.00;100.00;101254.16;5027831;28;20112;-64
2023/01/07 04:44:46;;;;;;;3.45;2.03;;;;;;;9.00;100.00;101246.41;5027820;28;20025;-65
2023/01/07 04:47:11;;;;;;;2.53;2.28;;;;;;;8.96;100.00;101241.94;5027179;28;20493;-64
2023/01/07 04:49:36;;;;;;;4.78;2.33;;;;;;;8.92;100.00;101238.31;5027531;28;20064;-65
2023/01/07 04:52:02;;;;;;;2.97;2.10;;;;;;;8.88;100.00;101239.00;5027730;28;20026;-64
2023/01/07 04:54:28;;;;;;;3.45;2.22;;;;;;;8.90;100.00;101239.94;5027974;28;20017;-64
2023/01/07 04:56:53;;;;;;;3.15;2.00;;;;;;;8.84;100.00;101240.53;5026868;28;20087;-65
2023/01/07 04:59:19;;;;;;;4.32;2.03;;;;;;;8.84;100.00;101235.38;5027774;28;20057;-64
2023/01/07 05:01:44;;;;;;;4.53;2.33;;;;;;;8.84;100.00;101230.22;5027594;28;20033;-64
2023/01/07 05:04:10;;;;;;;3.30;2.15;;;;;;;8.83;100.00;101220.66;5027531;28;20075;-64
2023/01/07 05:06:35;;;;;;;2.00;1.80;;;;;;;8.85;100.00;101224.22;5027570;28;20041;-64
2023/01/07 05:09:00;;;;;;;2.42;1.88;;;;;;;8.87;100.00;101224.28;5027120;28;20394;-64
2023/01/07 05:11:25;;;;;;;3.03;1.70;;;;;;;8.84;100.00;101222.47;5027445;28;20029;-65
2023/01/07 05:13:51;;;;;;;2.55;2.00;;;;;;;8.86;100.00;101232.84;5027325;28;20075;-65
2023/01/07 05:16:16;;;;;;;3.78;2.00;;;;;;;8.84;100.00;101225.03;5026489;28;20029;-64
2023/01/07 05:18:42;;;;;;;5.93;2.17;;;;;;;8.80;100.00;101222.22;5027337;28;20120;-64
2023/01/07 05:21:09;;;;;;;2.30;1.83;;;;;;;8.79;100.00;101220.47;5027511;28;20033;-65
2023/01/07 05:23:34;;;;;;;3.35;1.90;;;;;;;8.78;100.00;101211.81;5027175;28;20033;-64
2023/01/07 05:25:59;;;;;;;3.92;2.10;;;;;;;8.74;100.00;101215.09;5027182;28;20071;-64
2023/01/07 05:28:25;;;;;;;2.67;1.90;;;;;;;8.75;100.00;101214.28;5027148;28;20394;-64
2023/01/07 05:30:50;;;;;;;3.90;1.92;;;;;;;8.73;100.00;101209.03;5027119;28;20026;-64
2023/01/07 05:33:15;;;;;;;3.47;1.70;;;;;;;8.71;100.00;101207.19;5027121;28;20060;-64
2023/01/07 05:35:40;;;;;;;2.78;1.60;;;;;;;8.72;100.00;101203.81;5027130;28;20421;-65
2023/01/07 05:38:06;;;;;;;1.52;1.33;;;;;;;8.74;100.00;101207.34;5027333;28;20033;-64
2023/01/07 05:40:31;;;;;;;3.72;1.83;;;;;;;8.72;100.00;101217.63;5027250;28;20077;-64
2023/01/07 05:42:56;;;;;;;3.05;1.60;;;;;;;8.71;100.00;101218.41;5026321;28;20041;-64
2023/01/07 05:45:22;;;;;;;4.65;1.70;;;;;;;8.70;100.00;101208.03;5026920;28;20067;-64
2023/01/07 05:47:47;;;;;;;1.85;1.25;;;;;;;8.72;100.00;101215.03;5027063;28;20037;-64
2023/01/07 05:50:12;;;;;;;1.83;1.73;;;;;;;8.74;100.00;101205.63;5026617;28;20492;-64
2023/01/07 05:52:38;;;;;;;1.75;1.27;;;;;;;8.74;100.00;101203.06;5026664;28;20049;-65
2023/01/07 05:55:04;;;;;;;3.83;1.50;;;;;;;8.79;100.00;101203.28;5026614;28;20039;-64
2023/01/07 05:57:30;;;;;;;2.67;1.50;;;;;;;8.85;100.00;101200.94;5027127;28;20551;-64
2023/01/07 05:59:55;;;;;;;3.65;1.50;;;;;;;8.89;100.00;101201.97;5026940;28;20025;-64
2023/01/07 06:02:20;;;;;;;3.38;1.40;;;;;;;8.89;100.00;101199.38;5026469;28;20033;-65
2023/01/07 06:04:46;;;;;;;1.73;1.08;;;;;;;8.91;100.00;101197.75;5026898;28;20052;-64
2023/01/07 06:07:11;;;;;;;1.55;1.23;;;;;;;8.92;100.00;101196.06;5027100;28;20142;-64
2023/01/07 06:09:36;;;;;;;1.83;1.20;;;;;;;8.93;100.00;101184.91;5025991;28;20117;-64
2023/01/07 06:12:02;;;;;;;2.85;1.50;;;;;;;8.95;100.00;101188.44;5026688;28;20025;-64
2023/01/07 06:14:27;;;;;;;3.53;1.30;;;;;;;8.95;100.00;101183.28;5026669;28;20020;-64
2023/01/07 06:16:52;;;;;;;2.08;1.27;;;;;;;8.97;100.00;101179.06;5027033;28;20401;-64
2023/01/07 06:19:17;;;;;;;1.83;1.27;;;;;;;8.99;100.00;101172.25;5026125;28;20044;-64
2023/01/07 06:21:43;;;;;;;5.82;1.00;;;;;;;8.94;100.00;101177.22;5026764;28;20053;-64
2023/01/07 06:24:10;;;;;;;2.72;0.95;;;;;;;8.99;100.00;101167.09;5026578;28;20036;-64
2023/01/07 06:26:35;;;;;;;1.58;0.88;;;;;;;8.97;100.00;101171.31;5026415;28;20053;-65
2023/01/07 06:29:00;;;;;;;2.15;1.38;;;;;;;8.95;100.00;101165.19;5029788;28;20401;-64
2023/01/07 06:31:26;;;;;;;1.23;1.02;;;;;;;8.94;100.00;101166.88;5030238;28;20026;-64
2023/01/07 06:33:51;;;;;;;1.20;1.10;;;;;;;8.93;100.00;101166.81;5029986;28;20064;-64
2023/01/07 06:36:16;;;;;;;1.85;1.15;;;;;;;8.93;100.00;101159.06;5029802;28;20025;-65
2023/01/07 06:38:41;;;;;;;1.50;0.88;;;;;;;8.93;100.00;101156.47;5030134;28;20195;-65
2023/01/07 06:41:07;;;;;;;1.40;0.80;;;;;;;8.92;100.00;101159.88;5030203;28;20135;-64
2023/01/07 06:43:33;;;;;;;1.83;0.90;;;;;;;8.93;100.00;101153.88;5029733;28;20090;-64
2023/01/07 06:45:58;;;;;;;1.20;0.90;;;;;;;8.94;100.00;101148.78;5029859;28;20156;-65
2023/01/07 06:48:23;;;;;;;1.88;0.85;;;;;;;8.94;100.00;101155.69;5030073;28;20056;-64
2023/01/07 06:50:49;;;;;;;2.08;0.93;;;;;;;8.95;100.00;101152.25;5029349;28;20382;-64
2023/01/07 06:53:14;;;;;;;1.30;1.00;;;;;;;8.94;100.00;101147.91;5029486;28;20084;-64
2023/01/07 06:55:39;;;;;;;1.15;0.93;;;;;;;8.89;100.00;101148.59;5029763;28;20107;-65
2023/01/07 06:58:05;;;;;;;1.23;0.95;;;;;;;8.87;100.00;101134.72;5029686;28;20037;-64
2023/01/07 07:00:30;;;;;;;1.45;0.80;;;;;;;8.85;100.00;101144.09;5030333;28;20025;-65
2023/01/07 07:02:55;;;;;;;1.20;0.90;;;;;;;8.87;100.00;101147.63;5029162;28;20136;-64
2023/01/07 07:05:20;;;;;;;2.33;0.95;;;;;;;8.89;100.00;101139.94;5029403;28;20414;-65
2023/01/07 07:07:46;;;;;;;0.93;0.70;;;;;;;8.94;100.00;101129.81;5029711;28;20033;-64
2023/01/07 07:10:11;;;;;;;2.00;0.90;;;;;;;8.95;100.00;101129.00;5029245;28;20510;-64
2023/01/07 07:12:37;;;;;;;1.13;0.73;;;;;;;8.92;100.00;101128.88;5029261;28;20040;-64
2023/01/07 07:15:04;;;;;;;0.93;0.80;;;;;;;8.95;100.00;101123.81;5029643;28;20080;-65
2023/01/07 07:17:30;;;;;;;3.10;1.38;;;;;;;8.94;100.00;101122.06;5029726;28;20026;-64
2023/01/07 07:19:56;;;;;;;1.80;0.70;;;;;;;8.92;100.00;101122.00;5029053;28;20029;-65
2023/01/07 07:22:21;;;;;;;1.23;0.90;;;;;;;8.88;100.00;101131.34;5029399;28;20025;-64
2023/01/07 07:24:46;;;;;;;2.22;1.10;;;;;;;8.91;100.00;101117.63;5028757;28;20061;-64
2023/01/07 07:27:12;;;;;;;0.68;0.60;;;;;;;8.94;100.00;101116.91;5028403;28;20083;-64
2023/01/07 07:29:37;;;;;;;2.10;0.98;;;;;;;8.93;100.00;101115.13;5027477;28;20033;-64
2023/01/07 07:32:02;;;;;;;1.85;0.90;;;;;;;8.92;100.00;101110.78;5027155;28;20025;-65
2023/01/07 07:34:28;;;;;;;1.95;0.70;;;;;;;8.91;100.00;101112.47;5027580;28;20029;-65
2023/01/07 07:36:53;;;;;;;2.05;0.82;;;;;;;8.87;100.00;101110.56;5027287;28;20039;-64
2023/01/07 07:39:18;;;;;;;1.42;0.80;;;;;;;8.85;100.00;101113.09;5026219;28;20033;-64
2023/01/07 07:41:43;;;;;;;1.10;1.00;;;;;;;8.85;100.00;101107.91;5027419;28;20025;-65
2023/01/07 07:44:09;;;;;;;3.00;1.20;;;;;;;8.85;100.00;101102.75;5026640;28;20083;-64
2023/01/07 07:46:34;;;;;;;1.33;0.93;;;;;;;8.86;100.00;101099.38;5026541;28;20037;-64
2023/01/07 07:48:59;;;;;;;1.52;0.90;;;;;;;8.86;100.00;101103.63;5027146;28;20036;-65
2023/01/07 07:51:25;;;;;;;1.30;0.90;;;;;;;8.85;100.00;101097.56;5028732;28;20032;-64
2023/01/07 07:53:50;;;;;;;3.17;0.80;;;;;;;8.86;100.00;101099.38;5028181;28;20050;-64
2023/01/07 07:56:15;;;;;;;1.77;0.90;;;;;;;8.83;100.00;101095.75;5029029;28;20022;-65
2023/01/07 07:58:42;;;;;;;1.33;0.75;;;;;;;8.85;100.00;101082.06;5029086;28;20107;-64
2023/01/07 08:01:07;;;;;;;1.02;0.80;;;;;;;8.85;100.00;101095.00;5028657;28;20079;-64
2023/01/07 08:03:33;;;;;;;1.83;0.80;;;;;;;8.84;100.00;101084.59;5027990;28;20037;-64
2023/01/07 08:05:58;;;;;;;1.48;1.00;;;;;;;8.86;100.00;101083.84;5028724;28;20036;-64
2023/01/07 08:08:23;;;;;;;1.52;0.75;;;;;;;8.89;100.00;101083.09;5027516;28;20462;-64
2023/01/07 08:10:49;;;;;;;1.25;0.95;;;;;;;8.89;100.00;101077.91;5028394;28;20124;-65
2023/01/07 08:13:14;;;;;;;3.13;0.85;;;;;;;8.87;100.00;101071.78;5027910;28;20084;-65
2023/01/07 08:15:39;;;;;;;1.63;1.08;;;;;;;8.89;100.00;101073.63;5028048;28;20144;-65
2023/01/07 08:18:07;;;;;;;3.15;0.80;;;;;;;8.89;100.00;101078.81;5028208;28;20056;-64
2023/01/07 08:20:34;;;;;;;2.08;0.85;;;;;;;8.91;100.00;101075.41;5028928;28;20055;-64
2023/01/07 08:23:01;;;;;;;1.17;0.88;;;;;;;8.92;100.00;101074.59;5027919;28;20029;-65
2023/01/07 08:25:28;;;;;;;1.05;0.95;;;;;;;8.95;100.00;101072.13;5027605;28;20553;-65
2023/01/07 08:27:54;;;;;;;2.80;0.90;;;;;;;8.95;100.00;101073.03;5028462;28;20033;-64
2023/01/07 08:30:20;;;;;;;0.60;0.60;;;;;;;8.98;100.00;101067.09;5028024;28;20037;-64
2023/01/07 08:32:45;;;;;;;1.50;0.70;;;;;;;8.99;100.00;101064.56;5028610;28;20033;-64
2023/01/07 08:35:10;;;;;;;0.93;0.60;;;;;;;9.00;100.00;101066.34;5028142;28;20026;-64
2023/01/07 08:37:36;;;;;;;2.33;1.00;;;;;;;9.03;100.00;101055.22;5027810;28;20500;-64
2023/01/07 08:40:02;;;;;;;0.75;0.75;;;;;;;9.09;100.00;101054.59;5027488;28;20547;-65
2023/01/07 08:42:29;;;;;;;1.35;0.80;;;;;;;9.10;100.00;101052.09;5027977;28;20044;-65
2023/01/07 08:44:54;;;;;;;1.42;0.90;;;;;;;9.08;100.00;101052.84;5027869;28;20284;-64
2023/01/07 08:47:19;;;;;;;1.13;1.00;;;;;;;9.06;100.00;101054.50;5027682;28;20102;-64
2023/01/07 08:49:45;;;;;;;1.42;1.23;;;;;;;9.11;100.00;101053.88;5027653;28;20035;-64
2023/01/07 08:52:10;;;;;;;1.70;1.00;;;;;;;9.13;100.00;101056.50;5027928;28;20029;-64
2023/01/07 08:54:35;;;;;;;1.30;0.80;;;;;;;9.08;100.00;101048.59;5027763;28;20033;-64
2023/01/07 08:57:01;;;;;;;1.25;0.80;;;;;;;9.10;100.00;101046.91;5027669;28;20052;-64
2023/01/07 08:59:26;;;;;;;1.45;0.70;;;;;;;9.09;100.00;101050.34;5027831;28;20064;-64
2023/01/07 09:01:51;;;;;;;2.88;0.70;;;;;;;9.11;100.00;101048.69;5028172;28;20029;-64
2023/01/07 09:04:16;;;;;;;1.85;0.70;;;;;;;9.10;100.00;101049.50;5027167;28;20434;-64
2023/01/07 09:06:42;;;;;;;3.05;1.08;;;;;;;9.11;100.00;101053.88;5027794;28;20036;-64
2023/01/07 09:09:07;;;;;;;2.92;0.90;;;;;;;9.18;100.00;101043.75;5027783;28;20029;-64
2023/01/07 09:11:33;;;;;;;1.40;0.75;;;;;;;9.15;100.00;101035.88;5027599;28;20111;-64
2023/01/07 09:13:58;;;;;;;1.00;0.80;;;;;;;9.18;100.00;101028.25;5026958;28;20033;-64
2023/01/07 09:16:23;;;;;;;1.77;0.75;;;;;;;9.17;100.00;101029.09;5027285;28;20079;-65
2023/01/07 09:18:49;;;;;;;1.58;0.75;;;;;;;9.18;100.00;101030.84;5027742;28;20491;-64
2023/01/07 09:21:15;;;;;;;1.30;0.70;;;;;;;9.16;100.00;101025.59;5027081;28;20029;-64
2023/01/07 09:23:40;;;;;;;1.23;0.77;;;;;;;9.22;100.00;101019.81;5027324;28;20481;-64
2023/01/07 09:26:06;;;;;;;0.70;0.65;;;;;;;9.24;100.00;101025.94;5027545;28;20390;-64
2023/01/07 09:28:31;;;;;;;0.98;0.80;;;;;;;9.24;100.00;101021.66;5027402;28;20497;-64
2023/01/07 09:30:58;;;;;;;0.98;0.77;;;;;;;9.28;100.00;101020.06;5027466;28;20044;-65
2023/01/07 09:33:24;;;;;;;1.13;0.95;;;;;;;9.26;100.00;101016.53;5026758;28;20068;-64
2023/01/07 09:35:49;;;;;;;2.10;1.00;;;;;;;9.29;100.00;101016.66;5027629;28;20037;-64
2023/01/07 09:38:14;;;;;;;0.90;0.77;;;;;;;9.32;100.00;101016.75;5027298;28;20029;-64
2023/01/07 09:40:41;;;;;;;0.90;0.80;;;;;;;9.35;100.00;101006.53;5027225;28;20033;-65
2023/01/07 09:43:24;;;;;;;1.05;0.55;;;;;;;9.43;100.00;101008.53;5026658;28;20029;-64
2023/01/07 09:45:58;;;;;;;0.65;0.65;;;;;;;9.44;100.00;101005.16;5027368;28;20064;-65
2023/01/07 09:48:30;;;;;;;0.88;0.85;;;;;;;9.43;100.00;100990.44;5027232;28;20029;-65
2023/01/07 09:51:11;;;;;;;0.80;0.70;;;;;;;9.45;100.00;101001.72;5027036;28;20029;-64
2023/01/07 09:53:44;;;;;;;2.50;0.80;;;;;;;9.49;100.00;100995.88;5027093;28;20053;-64
2023/01/07 09:56:22;;;;;;;0.70;0.70;;;;;;;9.55;100.00;100993.50;5026996;28;20052;-64
2023/01/07 09:58:47;;;;;;;2.40;0.70;;;;;;;9.63;100.00;100986.03;5026915;28;20112;-64
2023/01/07 10:01:22;;;;;;;0.60;0.60;;;;;;;9.70;100.00;100981.97;5027010;28;20025;-64
2023/01/07 10:04:11;;;;;;;0.65;0.65;;;;;;;9.82;100.00;100966.03;5029976;28;20018;-64
2023/01/07 10:07:05;;;;;;;0.90;0.65;;;;;;;9.91;100.00;100975.84;5030537;28;20036;-64
2023/01/07 10:09:52;;;;;;;0.70;0.68;;;;;;;10.00;100.00;100962.38;5030786;28;20029;-64
2023/01/07 10:13:07;;;;;;;0.95;0.70;;;;;;;10.08;100.00;100956.63;5030731;28;20082;-64
2023/01/07 10:15:52;;;;;;;1.45;0.85;;;;;;;10.10;100.00;100951.50;4942184;28;20061;-64
2023/01/07 10:19:06;;;;;;;0.95;0.60;;;;;;;10.14;100.00;100940.44;5030662;28;20570;-65
2023/01/07 10:21:43;;;;;;;0.60;0.60;;;;;;;10.23;99.55;100928.63;5007986;28;20044;-64
2023/01/07 10:24:40;;;;;;;2.38;0.80;;;;;;;10.20;99.86;100927.69;5030655;28;20034;-65
2023/01/07 10:27:11;;;;;;;1.35;0.60;;;;;;;10.22;98.17;100922.56;5025644;28;20044;-65
2023/01/07 10:29:45;;;;;;;1.48;0.50;;;;;;;10.28;97.52;100917.63;5030511;28;20033;-64
2023/01/07 10:32:16;;;;;;;0.60;0.60;;;;;;;10.31;96.86;100917.72;5030037;28;20566;-64
2023/01/07 10:34:45;;;;;;;0.63;0.55;;;;;;;10.31;95.63;100899.59;5030029;28;20106;-64
2023/01/07 10:37:20;;;;;;;0.40;0.38;;;;;;;10.36;96.21;100888.50;5030023;28;20393;-64
2023/01/07 10:39:45;;;;;;;0.50;0.50;;;;;;;10.42;93.97;100892.19;5030733;28;20022;-64
2023/01/07 10:42:22;;;;;;;0.85;0.43;;;;;;;10.39;92.58;100880.84;5030160;28;20029;-64
2023/01/07 10:44:59;;;;;;;0.57;0.40;;;;;;;10.39;92.95;100880.84;5029749;28;20039;-64
2023/01/07 10:47:27;;;;;;;0.63;0.50;;;;;;;10.40;92.24;100875.69;5030418;28;20108;-65
2023/01/07 10:49:58;;;;;;;0.50;0.50;;;;;;;10.43;93.68;100872.34;5030303;28;20030;-64
2023/01/07 10:52:25;;;;;;;;;;;;;;;10.45;92.70;100862.91;5029632;28;20065;-65
2023/01/07 10:55:11;;;;;;;0.80;0.52;;;;;;;10.47;93.05;100874.19;5029762;28;19920;-64
2023/01/07 10:57:37;;;;;;;1.05;0.60;;;;;;;10.50;91.03;100869.16;5030060;28;20033;-64
2023/01/07 11:00:05;;;;;;;0.68;0.50;;;;;;;10.50;90.46;100856.19;5029663;28;20044;-64
2023/01/07 11:02:31;;;;;;;0.52;0.52;;;;;;;10.56;88.82;100847.72;5030008;28;20470;-65
2023/01/07 11:04:57;;;;;;;0.90;0.43;;;;;;;10.58;90.86;100851.25;5029578;28;20044;-65
2023/01/07 11:07:42;;;;;;;0.50;0.50;;;;;;;10.57;89.17;100850.38;5029864;28;20029;-64
2023/01/07 11:10:16;;;;;;;0.95;0.63;;;;;;;10.62;89.58;100844.44;5029518;28;20033;-64
2023/01/07 11:12:47;;;;;;;1.35;0.50;;;;;;;10.56;90.17;100838.25;5029671;28;20413;-65
2023/01/07 11:15:22;;;;;;;0.47;0.40;;;;;;;10.56;88.32;100846.03;5028828;28;20493;-64
2023/01/07 11:18:01;;;;;;;1.35;0.70;;;;;;;10.59;87.82;100837.47;5029697;28;20033;-64
2023/01/07 11:20:53;;;;;;;1.23;0.57;;;;;;;10.57;90.04;100841.72;5029799;28;20032;-64
2023/01/07 11:23:18;;;;;;;;;;;;;;;10.54;87.88;100832.13;5030297;28;20543;-65
2023/01/07 11:25:45;;;;;;;0.80;0.50;;;;;;;10.53;89.58;100822.59;5029412;28;20381;-64
2023/01/07 11:28:18;;;;;;;1.08;0.88;;;;;;;10.54;88.48;100814.00;5029432;28;20056;-65
2023/01/07 11:30:45;;;;;;;0.60;0.60;;;;;;;10.50;88.05;100819.03;5029560;28;20542;-65
2023/01/07 11:33:23;;;;;;;1.23;0.63;;;;;;;10.50;89.72;100811.25;5029038;28;20036;-65
2023/01/07 11:35:54;;;;;;;1.27;0.70;;;;;;;10.54;89.08;100798.44;5029609;28;20026;-65
2023/01/07 11:38:30;;;;;;;2.38;1.08;;;;;;;10.55;88.61;100794.16;5030062;28;20100;-65